Time;durP1;ratioP1;P1;durP2;ratioP2;P2;SDS_P1;SDS_P2;PMS_P1;PMS_P2;Temp;Humidity;BMP_temperature;BMP_pressure;BME280_temperature;BME280_humidity;BME280_pressure;Samples;Min_cycle;Max_cycle;Signal;HPM_P1;HPM_P2
2022/07/10 00:01:51;;;;;;;1.63;1.00;;;17.80;99.90;;;;;;4997001;28;20029;-69
2022/07/10 00:04:18;;;;;;;2.00;0.98;;;17.80;99.90;;;;;;4996818;28;20037;-72
2022/07/10 00:06:46;;;;;;;1.10;0.70;;;17.70;99.90;;;;;;4997157;28;20022;-69
2022/07/10 00:09:13;;;;;;;1.25;0.70;;;17.70;99.90;;;;;;4996842;28;20397;-68
2022/07/10 00:11:39;;;;;;;1.10;0.80;;;17.70;99.90;;;;;;4996865;28;20028;-71
2022/07/10 00:14:05;;;;;;;1.73;0.70;;;17.80;99.90;;;;;;4995250;28;20120;-71
2022/07/10 00:16:31;;;;;;;0.90;0.65;;;17.70;99.90;;;;;;4996625;28;20473;-67
2022/07/10 00:18:56;;;;;;;1.10;0.70;;;17.70;99.90;;;;;;4996566;28;20489;-68
2022/07/10 00:21:22;;;;;;;0.95;0.80;;;17.70;99.90;;;;;;4996681;28;20059;-69
2022/07/10 00:23:48;;;;;;;1.95;0.75;;;17.70;99.90;;;;;;4996362;28;20080;-71
2022/07/10 00:26:13;;;;;;;0.60;0.60;;;17.70;99.90;;;;;;4996535;28;20018;-69
2022/07/10 00:28:39;;;;;;;0.82;0.73;;;17.60;99.90;;;;;;4995496;28;20032;-70
2022/07/10 00:31:05;;;;;;;0.88;0.70;;;17.60;99.90;;;;;;4996343;28;20397;-71
2022/07/10 00:33:32;;;;;;;2.25;0.98;;;17.60;99.90;;;;;;4996212;28;20397;-68
2022/07/10 00:35:58;;;;;;;0.65;0.65;;;17.50;99.90;;;;;;4996466;28;20109;-69
2022/07/10 00:38:24;;;;;;;0.57;0.57;;;17.40;99.90;;;;;;4996130;28;20022;-71
2022/07/10 00:40:50;;;;;;;1.00;0.60;;;17.40;99.90;;;;;;4996293;28;20025;-68
2022/07/10 00:43:16;;;;;;;0.65;0.57;;;17.40;99.90;;;;;;4996217;28;20391;-71
2022/07/10 00:45:41;;;;;;;0.70;0.70;;;17.40;99.90;;;;;;4996126;28;20135;-69
2022/07/10 00:48:09;;;;;;;1.52;0.85;;;17.40;99.90;;;;;;4996011;28;20030;-68
2022/07/10 00:50:35;;;;;;;2.10;0.90;;;17.40;99.90;;;;;;4994668;28;20461;-68
2022/07/10 00:53:02;;;;;;;1.13;0.70;;;17.40;99.90;;;;;;4995937;28;20106;-70
2022/07/10 00:55:29;;;;;;;2.35;0.90;;;17.30;99.90;;;;;;4996253;28;20022;-71
2022/07/10 00:57:55;;;;;;;2.25;1.10;;;17.30;99.90;;;;;;4995982;28;20511;-70
2022/07/10 01:00:21;;;;;;;1.35;0.90;;;17.30;99.90;;;;;;4995963;28;20023;-68
2022/07/10 01:02:47;;;;;;;1.25;0.75;;;17.20;99.90;;;;;;4995616;28;20026;-68
2022/07/10 01:05:14;;;;;;;1.10;0.90;;;17.20;99.90;;;;;;4995879;28;20101;-67
2022/07/10 01:07:39;;;;;;;1.17;0.60;;;17.20;99.90;;;;;;4995826;28;20072;-71
2022/07/10 01:10:06;;;;;;;0.70;0.60;;;17.20;99.90;;;;;;4995616;28;20423;-71
2022/07/10 01:12:31;;;;;;;1.23;0.70;;;17.10;99.90;;;;;;4995545;28;20124;-71
2022/07/10 01:14:58;;;;;;;1.67;0.90;;;17.10;99.90;;;;;;4995595;28;20058;-71
2022/07/10 01:17:26;;;;;;;0.73;0.65;;;17.10;99.90;;;;;;4995292;28;20027;-69
2022/07/10 01:19:51;;;;;;;1.52;0.88;;;17.10;99.90;;;;;;4995627;28;20024;-68
2022/07/10 01:22:17;;;;;;;0.70;0.70;;;17.00;99.90;;;;;;4995474;28;20022;-70
2022/07/10 01:24:43;;;;;;;1.60;0.63;;;17.00;99.90;;;;;;4995321;28;20037;-68
2022/07/10 01:27:08;;;;;;;0.88;0.60;;;17.00;99.90;;;;;;4995574;28;20456;-70
2022/07/10 01:29:36;;;;;;;0.60;0.38;;;17.00;99.90;;;;;;4995496;28;20396;-70
2022/07/10 01:32:02;;;;;;;0.77;0.43;;;17.00;99.90;;;;;;4995261;28;20453;-71
2022/07/10 01:34:28;;;;;;;0.50;0.43;;;17.00;99.90;;;;;;4993850;28;20127;-68
2022/07/10 01:36:54;;;;;;;0.75;0.40;;;17.10;99.90;;;;;;4995266;28;20085;-72
2022/07/10 01:39:20;;;;;;;0.70;0.50;;;17.10;99.90;;;;;;4995193;28;20027;-68
2022/07/10 01:41:45;;;;;;;0.60;0.55;;;17.00;99.90;;;;;;4993781;28;20018;-71
2022/07/10 01:44:11;;;;;;;1.42;0.60;;;17.00;99.90;;;;;;4995108;28;20026;-70
2022/07/10 01:46:45;;;;;;;1.65;0.70;;;17.00;99.90;;;;;;4995064;28;20029;-71
2022/07/10 01:49:11;;;;;;;1.10;0.77;;;17.00;99.90;;;;;;4995132;28;20030;-69
2022/07/10 01:51:36;;;;;;;1.35;0.90;;;16.90;99.90;;;;;;4995073;28;20027;-70
2022/07/10 01:54:02;;;;;;;2.28;1.02;;;16.90;99.90;;;;;;4993631;28;20034;-69
2022/07/10 01:56:28;;;;;;;0.93;0.70;;;16.80;99.90;;;;;;4993433;28;20030;-67
2022/07/10 01:58:53;;;;;;;0.80;0.60;;;16.70;99.90;;;;;;4994681;28;20269;-69
2022/07/10 02:01:19;;;;;;;0.82;0.60;;;16.80;99.90;;;;;;4994115;28;20022;-67
2022/07/10 02:06:29;;;;;;;0.93;0.63;;;16.90;99.90;;;;;;4994745;28;20073;-69
2022/07/10 02:08:55;;;;;;;1.33;0.68;;;16.90;99.90;;;;;;4994552;28;20034;-67
2022/07/10 02:11:20;;;;;;;0.80;0.60;;;16.80;99.90;;;;;;4994729;28;20029;-69
2022/07/10 02:13:46;;;;;;;0.70;0.60;;;16.80;99.90;;;;;;4994334;28;20042;-70
2022/07/10 02:16:12;;;;;;;1.58;0.73;;;16.80;99.90;;;;;;4994564;28;20483;-69
2022/07/10 02:18:38;;;;;;;0.82;0.60;;;16.90;99.90;;;;;;4995007;28;20377;-70
2022/07/10 02:21:04;;;;;;;0.70;0.60;;;16.90;99.90;;;;;;4994436;28;20370;-71
2022/07/10 02:23:30;;;;;;;0.63;0.57;;;16.90;99.90;;;;;;4994368;28;20030;-68
2022/07/10 02:25:56;;;;;;;1.05;0.60;;;16.90;99.90;;;;;;4994253;28;20025;-69
2022/07/10 02:28:22;;;;;;;0.60;0.60;;;16.80;99.90;;;;;;4994273;28;20050;-70
2022/07/10 02:30:47;;;;;;;2.05;0.73;;;16.80;99.90;;;;;;4994397;28;20461;-70
2022/07/10 02:33:13;;;;;;;1.48;0.70;;;16.70;99.90;;;;;;4994149;28;20441;-71
2022/07/10 02:35:39;;;;;;;1.58;0.65;;;16.70;99.90;;;;;;4994204;28;20547;-71
2022/07/10 02:38:04;;;;;;;0.77;0.60;;;16.60;99.90;;;;;;4992951;28;20049;-71
2022/07/10 02:40:30;;;;;;;0.50;0.50;;;16.60;99.90;;;;;;4992873;28;20025;-70
2022/07/10 02:42:55;;;;;;;0.43;0.43;;;16.60;99.90;;;;;;4993981;28;20054;-68
2022/07/10 02:45:21;;;;;;;0.63;0.50;;;16.60;99.90;;;;;;4994155;28;20026;-69
2022/07/10 02:47:47;;;;;;;1.52;0.60;;;16.60;99.90;;;;;;4994042;28;20034;-70
2022/07/10 02:50:13;;;;;;;0.75;0.50;;;16.50;99.90;;;;;;4992767;28;20030;-68
2022/07/10 02:52:39;;;;;;;0.93;0.50;;;16.50;99.90;;;;;;4994059;28;20023;-71
2022/07/10 02:55:05;;;;;;;2.25;0.90;;;16.40;99.90;;;;;;4992694;28;20077;-69
2022/07/10 02:57:31;;;;;;;0.77;0.70;;;16.40;99.90;;;;;;4992511;28;20089;-69
2022/07/10 02:59:56;;;;;;;0.80;0.80;;;16.30;99.90;;;;;;4994066;28;20477;-68
2022/07/10 03:02:22;;;;;;;1.10;0.70;;;16.20;99.90;;;;;;4993964;28;20054;-67
2022/07/10 03:04:48;;;;;;;0.50;0.40;;;16.20;99.90;;;;;;4993791;28;20072;-69
2022/07/10 03:07:13;;;;;;;0.75;0.65;;;16.20;99.90;;;;;;4993885;28;20105;-69
2022/07/10 03:09:39;;;;;;;0.70;0.70;;;16.20;99.90;;;;;;4993961;28;20022;-71
2022/07/10 03:12:05;;;;;;;0.63;0.60;;;16.10;99.90;;;;;;4994865;28;20022;-69
2022/07/10 03:14:31;;;;;;;0.73;0.70;;;16.10;99.90;;;;;;4997887;28;20037;-69
2022/07/10 03:16:56;;;;;;;1.45;0.60;;;16.10;99.90;;;;;;4996623;28;20022;-71
2022/07/10 03:19:22;;;;;;;1.63;0.55;;;16.20;99.90;;;;;;4997687;28;20050;-71
2022/07/10 03:21:48;;;;;;;0.52;0.52;;;16.20;99.90;;;;;;4996524;28;20049;-69
2022/07/10 03:24:13;;;;;;;1.00;0.50;;;16.10;99.90;;;;;;4997693;28;20048;-71
2022/07/10 03:26:39;;;;;;;0.90;0.70;;;16.20;99.90;;;;;;4997625;28;20051;-67
2022/07/10 03:29:04;;;;;;;1.15;0.80;;;16.20;99.90;;;;;;4997547;28;20033;-68
2022/07/10 03:31:31;;;;;;;0.68;0.60;;;16.30;99.90;;;;;;4996264;28;20034;-69
2022/07/10 03:33:57;;;;;;;0.77;0.68;;;16.30;99.90;;;;;;4997507;28;20030;-70
2022/07/10 03:36:22;;;;;;;1.75;0.95;;;16.30;99.90;;;;;;4997449;28;20019;-70
2022/07/10 03:38:48;;;;;;;0.85;0.68;;;16.30;99.90;;;;;;4997615;28;20098;-68
2022/07/10 03:41:14;;;;;;;0.52;0.52;;;16.30;99.90;;;;;;4997248;28;20022;-72
2022/07/10 03:43:40;;;;;;;1.13;0.80;;;16.30;99.90;;;;;;4997267;28;20061;-68
2022/07/10 03:46:05;;;;;;;1.90;0.80;;;16.30;99.90;;;;;;4997654;28;20054;-70
2022/07/10 03:48:32;;;;;;;1.00;0.70;;;16.30;99.90;;;;;;4997244;28;20114;-69
2022/07/10 03:50:58;;;;;;;1.02;0.70;;;16.30;99.90;;;;;;4997098;28;20113;-72
2022/07/10 03:53:24;;;;;;;1.13;0.70;;;16.30;99.90;;;;;;4997166;28;20096;-71
2022/07/10 03:55:50;;;;;;;0.50;0.50;;;16.40;99.90;;;;;;4995652;28;20019;-69
2022/07/10 03:58:16;;;;;;;0.93;0.60;;;16.40;99.90;;;;;;4997170;28;20068;-68
2022/07/10 04:00:42;;;;;;;1.38;0.57;;;16.40;99.90;;;;;;4996920;28;20401;-71
2022/07/10 04:03:08;;;;;;;0.93;0.60;;;16.40;99.90;;;;;;4997062;28;20037;-71
2022/07/10 04:05:34;;;;;;;0.95;0.73;;;16.40;99.90;;;;;;4997078;28;20482;-68
2022/07/10 04:08:02;;;;;;;0.73;0.52;;;16.40;99.90;;;;;;4996880;28;20023;-69
2022/07/10 04:10:29;;;;;;;0.90;0.60;;;16.40;99.90;;;;;;4995403;28;20022;-70
2022/07/10 04:12:55;;;;;;;1.20;0.80;;;16.40;99.90;;;;;;4996614;28;20114;-69
2022/07/10 04:15:21;;;;;;;2.08;1.10;;;16.40;99.90;;;;;;4997056;28;20018;-70
2022/07/10 04:17:48;;;;;;;1.50;1.13;;;16.40;99.90;;;;;;4995452;28;20022;-68
2022/07/10 04:20:14;;;;;;;2.28;1.48;;;16.40;99.90;;;;;;4996745;28;20023;-71
2022/07/10 04:22:40;;;;;;;1.10;0.95;;;16.40;99.90;;;;;;4996504;28;20058;-68
2022/07/10 04:25:08;;;;;;;1.42;1.23;;;16.50;99.90;;;;;;4994634;28;20065;-69
2022/07/10 04:27:33;;;;;;;1.30;0.90;;;16.50;99.90;;;;;;4996670;28;20026;-69
2022/07/10 04:29:59;;;;;;;2.97;1.30;;;16.50;99.90;;;;;;4996549;28;20444;-69
2022/07/10 04:32:25;;;;;;;1.88;1.00;;;16.50;99.90;;;;;;4996500;28;20026;-70
2022/07/10 04:34:50;;;;;;;3.50;0.90;;;16.50;99.90;;;;;;4995084;28;20069;-70
2022/07/10 04:37:16;;;;;;;1.38;0.90;;;16.60;99.90;;;;;;4996284;28;20027;-70
2022/07/10 04:39:42;;;;;;;1.58;1.00;;;16.70;99.90;;;;;;4996151;28;20473;-69
2022/07/10 04:42:08;;;;;;;3.70;2.78;;;16.70;99.90;;;;;;4994997;28;20022;-68
2022/07/10 04:44:36;;;;;;;2.28;1.98;;;16.70;99.90;;;;;;4996254;28;20026;-69
2022/07/10 04:47:02;;;;;;;2.60;1.73;;;16.70;99.90;;;;;;4996225;28;20555;-71
2022/07/10 04:49:28;;;;;;;1.45;1.23;;;16.80;99.90;;;;;;4994897;28;20029;-68
2022/07/10 04:51:54;;;;;;;2.90;1.77;;;16.90;99.90;;;;;;4996162;28;20038;-71
2022/07/10 04:54:20;;;;;;;1.65;1.45;;;17.20;99.90;;;;;;4996018;28;20018;-68
2022/07/10 04:56:46;;;;;;;1.30;0.90;;;17.30;99.90;;;;;;4996144;28;20033;-71
2022/07/10 04:59:11;;;;;;;1.10;1.00;;;17.50;99.90;;;;;;4996088;28;20029;-70
2022/07/10 05:01:37;;;;;;;1.80;0.90;;;17.60;99.90;;;;;;4995816;28;20023;-69
2022/07/10 05:04:03;;;;;;;1.15;0.90;;;17.60;99.90;;;;;;4995930;28;20113;-71
2022/07/10 05:06:29;;;;;;;1.20;1.00;;;17.70;99.90;;;;;;4995928;28;20023;-70
2022/07/10 05:08:55;;;;;;;1.20;0.98;;;17.80;99.90;;;;;;4995491;28;20049;-68
2022/07/10 05:11:22;;;;;;;1.02;0.75;;;17.80;99.90;;;;;;4994582;28;20054;-70
2022/07/10 05:13:48;;;;;;;0.85;0.82;;;17.90;99.90;;;;;;4994304;28;20078;-69
2022/07/10 05:16:17;;;;;;;0.68;0.68;;;18.00;99.90;;;;;;4995604;28;20049;-68
2022/07/10 05:18:44;;;;;;;1.55;0.98;;;18.10;99.90;;;;;;4995629;28;20054;-69
2022/07/10 05:21:09;;;;;;;1.02;0.85;;;18.20;99.90;;;;;;4995574;28;20093;-68
2022/07/10 05:23:37;;;;;;;1.25;0.80;;;18.20;99.90;;;;;;4994289;28;20035;-68
2022/07/10 05:26:02;;;;;;;1.98;1.05;;;18.30;99.90;;;;;;4995576;28;20069;-68
2022/07/10 05:28:28;;;;;;;2.97;1.30;;;18.30;99.90;;;;;;4994255;28;20030;-69
2022/07/10 05:30:54;;;;;;;1.98;0.90;;;18.30;99.90;;;;;;4995372;28;20022;-70
2022/07/10 05:33:19;;;;;;;1.65;1.08;;;18.30;99.90;;;;;;4995422;28;20069;-72
2022/07/10 05:35:45;;;;;;;1.88;1.30;;;18.30;99.90;;;;;;4993111;28;20026;-68
2022/07/10 05:38:11;;;;;;;1.45;0.95;;;18.30;99.90;;;;;;4995341;28;20053;-71
2022/07/10 05:40:37;;;;;;;2.35;1.50;;;18.30;99.90;;;;;;4995117;28;20022;-69
2022/07/10 05:43:03;;;;;;;1.92;1.38;;;18.40;99.90;;;;;;4994240;28;20117;-71
2022/07/10 05:45:29;;;;;;;1.30;1.20;;;18.50;99.90;;;;;;4995054;28;20417;-71
2022/07/10 05:47:55;;;;;;;3.03;1.60;;;18.60;99.90;;;;;;4994937;28;20030;-71
2022/07/10 05:50:20;;;;;;;1.60;1.35;;;18.80;99.90;;;;;;4994977;28;20080;-72
2022/07/10 05:52:46;;;;;;;2.85;2.17;;;18.90;99.90;;;;;;4993414;28;20046;-70
2022/07/10 05:55:12;;;;;;;4.38;2.08;;;19.10;99.90;;;;;;4994818;28;20105;-71
2022/07/10 05:57:38;;;;;;;4.68;2.10;;;19.30;99.90;;;;;;4994987;28;20113;-72
2022/07/10 06:00:05;;;;;;;3.13;2.38;;;19.40;99.90;;;;;;4994826;28;20126;-68
2022/07/10 06:02:31;;;;;;;5.05;3.92;;;19.50;99.90;;;;;;4994636;28;20026;-71
2022/07/10 06:04:56;;;;;;;4.18;2.97;;;19.60;99.90;;;;;;4994770;28;20019;-69
2022/07/10 06:07:22;;;;;;;5.63;4.05;;;19.70;99.90;;;;;;4994536;28;20075;-71
2022/07/10 06:09:48;;;;;;;7.55;6.15;;;19.90;99.90;;;;;;4994672;28;20073;-68
2022/07/10 06:12:15;;;;;;;8.75;4.93;;;20.00;99.90;;;;;;4994265;28;20037;-72
2022/07/10 06:14:41;;;;;;;6.90;4.57;;;20.00;99.90;;;;;;4994674;28;20037;-69
2022/07/10 06:17:07;;;;;;;6.30;4.68;;;20.10;99.90;;;;;;4993318;28;20077;-72
2022/07/10 06:19:33;;;;;;;6.18;4.13;;;20.30;99.70;;;;;;4994365;28;20022;-69
2022/07/10 06:24:43;;;;;;;6.72;4.80;;;20.30;99.90;;;;;;4994686;28;20080;-70
2022/07/10 06:27:08;;;;;;;7.22;3.90;;;20.30;99.90;;;;;;4994357;28;20030;-69
2022/07/10 06:29:34;;;;;;;7.85;4.20;;;20.30;99.90;;;;;;4994358;28;20396;-72
2022/07/10 06:32:00;;;;;;;6.63;4.82;;;20.40;99.90;;;;;;4994222;28;20438;-71
2022/07/10 06:34:25;;;;;;;7.85;5.35;;;20.30;99.90;;;;;;4993905;28;20026;-70
2022/07/10 06:36:51;;;;;;;7.88;4.47;;;20.40;99.90;;;;;;4994360;28;20022;-69
2022/07/10 06:39:17;;;;;;;6.30;3.70;;;20.50;99.90;;;;;;4994246;28;20393;-70
2022/07/10 06:41:42;;;;;;;5.32;3.67;;;20.60;99.90;;;;;;4994019;28;20022;-70
2022/07/10 06:44:08;;;;;;;5.03;2.90;;;20.70;99.70;;;;;;4992876;28;20034;-69
2022/07/10 06:46:34;;;;;;;4.70;3.15;;;20.90;99.90;;;;;;4993838;28;20030;-68
2022/07/10 06:49:00;;;;;;;4.70;3.72;;;21.10;99.90;;;;;;4994060;28;20026;-69
2022/07/10 06:51:26;;;;;;;7.38;4.68;;;21.10;99.90;;;;;;4993819;28;20022;-70
2022/07/10 06:53:52;;;;;;;7.97;4.85;;;21.10;99.40;;;;;;4993959;28;20109;-71
2022/07/10 06:56:18;;;;;;;8.00;5.60;;;21.30;99.40;;;;;;4992723;28;20452;-70
2022/07/10 06:58:44;;;;;;;9.38;5.32;;;21.40;99.50;;;;;;4994019;28;20114;-68
2022/07/10 07:01:09;;;;;;;6.65;4.53;;;21.60;99.80;;;;;;4993911;28;20102;-72
2022/07/10 07:03:35;;;;;;;7.75;4.95;;;21.70;98.90;;;;;;4992559;28;20042;-69
2022/07/10 07:06:01;;;;;;;4.97;4.00;;;21.80;98.00;;;;;;4993771;28;20031;-70
2022/07/10 07:08:29;;;;;;;8.88;5.30;;;21.90;98.50;;;;;;4993804;28;20054;-70
2022/07/10 07:10:55;;;;;;;7.20;4.57;;;22.10;98.90;;;;;;4993842;28;20053;-68
2022/07/10 07:13:21;;;;;;;5.78;3.80;;;22.20;96.90;;;;;;4993603;28;20050;-69
2022/07/10 07:15:56;;;;;;;7.03;3.88;;;22.30;96.20;;;;;;4993735;28;20038;-70
2022/07/10 07:18:31;;;;;;;6.03;3.38;;;22.40;95.60;;;;;;4993709;28;20029;-71
2022/07/10 07:23:41;;;;;;;7.82;4.13;;;22.70;93.90;;;;;;4993567;28;20540;-71
2022/07/10 07:26:07;;;;;;;6.18;3.55;;;22.70;93.80;;;;;;4993732;28;20027;-69
2022/07/10 07:28:32;;;;;;;5.10;3.28;;;22.60;93.50;;;;;;4993760;28;20443;-71
2022/07/10 07:30:59;;;;;;;4.55;2.63;;;22.60;94.00;;;;;;4993562;28;20091;-70
2022/07/10 07:33:25;;;;;;;3.63;2.70;;;22.80;95.30;;;;;;4993589;28;20034;-70
2022/07/10 07:35:50;;;;;;;7.05;3.17;;;23.10;93.30;;;;;;4993480;28;20034;-69
2022/07/10 07:38:17;;;;;;;3.17;2.30;;;23.30;92.30;;;;;;4992265;28;20023;-72
2022/07/10 07:40:42;;;;;;;3.33;2.35;;;23.40;92.30;;;;;;4993684;28;20068;-70
2022/07/10 07:43:08;;;;;;;2.53;2.10;;;23.80;91.90;;;;;;4993723;28;20448;-70
2022/07/10 07:45:34;;;;;;;3.80;2.10;;;25.50;88.00;;;;;;4992246;28;20030;-72
2022/07/10 07:48:01;;;;;;;2.95;1.60;;;27.10;78.80;;;;;;4993271;28;20097;-69
2022/07/10 07:50:31;;;;;;;2.92;1.45;;;27.90;72.50;;;;;;4993556;28;20029;-72
2022/07/10 07:52:58;;;;;;;2.40;1.50;;;28.40;68.50;;;;;;4993423;28;20030;-72
2022/07/10 07:55:24;;;;;;;1.35;1.00;;;29.70;64.30;;;;;;4992151;28;20161;-69
2022/07/10 07:57:55;;;;;;;1.88;0.90;;;30.90;60.00;;;;;;4993489;28;20038;-70
2022/07/10 08:00:22;;;;;;;2.15;1.15;;;31.50;55.60;;;;;;4996423;28;20540;-71
2022/07/10 08:02:52;;;;;;;1.42;0.90;;;31.80;55.70;;;;;;4996798;28;20385;-70
2022/07/10 08:05:19;;;;;;;1.95;1.08;;;32.60;54.90;;;;;;4997007;28;20514;-69
2022/07/10 08:07:54;;;;;;;1.73;1.10;;;33.50;52.80;;;;;;4996784;28;20105;-71
2022/07/10 08:10:22;;;;;;;1.55;0.95;;;33.20;51.10;;;;;;4995699;28;20377;-69
2022/07/10 08:12:48;;;;;;;1.88;1.00;;;33.10;51.90;;;;;;4996607;28;20050;-69
2022/07/10 08:15:21;;;;;;;1.60;1.10;;;33.60;50.20;;;;;;4996971;28;20109;-69
2022/07/10 08:17:49;;;;;;;2.35;0.80;;;34.00;50.00;;;;;;4996681;28;20023;-70
2022/07/10 08:20:15;;;;;;;0.70;0.70;;;34.30;50.40;;;;;;4996697;28;20057;-70
2022/07/10 08:22:41;;;;;;;0.88;0.80;;;34.70;49.00;;;;;;4996545;28;20022;-71
2022/07/10 08:25:08;;;;;;;1.08;0.80;;;32.80;48.50;;;;;;4996588;28;20018;-73
2022/07/10 08:27:34;;;;;;;1.05;0.40;;;32.80;49.00;;;;;;4996695;28;20027;-70
2022/07/10 08:30:00;;;;;;;0.57;0.40;;;32.90;46.40;;;;;;4996448;28;20093;-71
2022/07/10 08:32:27;;;;;;;0.30;0.22;;;34.00;47.70;;;;;;4996257;28;20513;-69
2022/07/10 08:34:53;;;;;;;0.45;0.30;;;34.60;46.70;;;;;;4996428;28;20110;-72
2022/07/10 08:37:19;;;;;;;0.47;0.38;;;34.70;45.20;;;;;;4995321;28;20129;-69
2022/07/10 08:39:45;;;;;;;0.63;0.40;;;34.10;44.90;;;;;;4996320;28;20046;-69
2022/07/10 08:42:12;;;;;;;0.80;0.40;;;34.10;46.30;;;;;;4996273;28;20050;-70
2022/07/10 08:44:38;;;;;;;1.00;0.50;;;33.00;45.10;;;;;;4996185;28;20497;-72
2022/07/10 08:47:04;;;;;;;0.50;0.40;;;33.60;45.60;;;;;;4996001;28;20026;-69
2022/07/10 08:49:31;;;;;;;0.60;0.30;;;33.50;45.00;;;;;;4996141;28;20019;-68
2022/07/10 08:52:20;;;;;;;0.30;0.30;;;34.00;45.20;;;;;;4996049;28;20018;-70
2022/07/10 08:54:46;;;;;;;0.70;0.30;;;34.60;44.60;;;;;;4994781;28;20022;-69
2022/07/10 08:57:12;;;;;;;0.52;0.50;;;35.20;42.20;;;;;;4995946;28;20034;-70
2022/07/10 08:59:38;;;;;;;0.98;0.50;;;35.00;42.30;;;;;;4994676;28;20023;-70
2022/07/10 09:02:03;;;;;;;1.17;0.50;;;35.20;43.80;;;;;;4995715;28;20388;-69
2022/07/10 09:04:29;;;;;;;0.47;0.40;;;36.00;42.50;;;;;;4995941;28;20026;-70
2022/07/10 09:06:55;;;;;;;1.67;0.70;;;35.90;42.10;;;;;;4995655;28;20388;-72
2022/07/10 09:09:22;;;;;;;0.30;0.30;;;35.70;42.50;;;;;;4995758;28;20030;-72
2022/07/10 09:11:47;;;;;;;0.50;0.30;;;35.60;43.10;;;;;;4995860;28;20026;-69
2022/07/10 09:14:17;;;;;;;0.30;0.30;;;35.00;42.50;;;;;;4994158;28;20425;-70
2022/07/10 09:16:47;;;;;;;0.40;0.30;;;35.00;43.50;;;;;;4995517;28;20473;-71
2022/07/10 09:19:21;;;;;;;0.43;0.40;;;35.30;41.90;;;;;;4995582;28;20018;-69
2022/07/10 09:21:49;;;;;;;0.30;0.30;;;34.90;42.00;;;;;;4995506;28;20018;-69
2022/07/10 09:24:19;;;;;;;0.73;0.50;;;34.80;42.50;;;;;;4995427;28;20026;-69
2022/07/10 09:27:03;;;;;;;1.15;0.50;;;33.70;42.80;;;;;;4995338;28;20026;-69
2022/07/10 09:29:30;;;;;;;0.40;0.40;;;32.60;43.60;;;;;;4993981;28;20026;-69
2022/07/10 09:32:02;;;;;;;2.10;0.50;;;31.40;43.50;;;;;;4995280;28;20019;-70
2022/07/10 09:34:48;;;;;;;0.30;0.30;;;30.90;44.20;;;;;;4993991;28;20121;-69
2022/07/10 09:37:27;;;;;;;0.38;0.30;;;30.10;45.50;;;;;;4993905;28;20114;-72
2022/07/10 09:40:04;;;;;;;0.95;0.40;;;31.20;45.00;;;;;;4995230;28;20057;-71
2022/07/10 09:42:30;;;;;;;0.40;0.20;;;31.00;44.50;;;;;;4995032;28;20473;-69
2022/07/10 09:45:16;;;;;;;0.50;0.50;;;30.50;44.60;;;;;;4995050;28;20027;-72
2022/07/10 09:48:04;;;;;;;0.30;0.30;;;30.20;42.90;;;;;;4995024;28;20157;-70
2022/07/10 09:50:36;;;;;;;0.43;0.30;;;31.30;42.90;;;;;;4995073;28;20019;-71
2022/07/10 09:53:04;;;;;;;0.52;0.30;;;32.40;43.20;;;;;;4994869;28;20031;-69
2022/07/10 09:55:38;;;;;;;0.30;0.30;;;32.50;42.10;;;;;;4994957;28;20030;-70
2022/07/10 09:58:09;;;;;;;0.38;0.22;;;32.70;42.40;;;;;;4994862;28;20152;-69
2022/07/10 10:00:45;;;;;;;0.65;0.30;;;32.60;41.30;;;;;;4993335;28;20491;-70
2022/07/10 10:04:11;;;;;;;2.05;0.55;;;32.60;42.20;;;;;;4994894;28;20153;-70
2022/07/10 10:06:39;;;;;;;0.52;0.40;;;32.20;42.50;;;;;;4973296;28;20031;-71
2022/07/10 10:09:15;;;;;;;0.50;0.43;;;31.70;42.40;;;;;;4973285;28;20046;-72
2022/07/10 10:12:04;;;;;;;1.30;0.40;;;31.80;45.00;;;;;;4973090;28;20031;-72
